createdAt,value
2022-11-25T00:01:34.124Z,100155.88
2022-11-25T00:04:02.405Z,100156.54
2022-11-25T00:06:35.049Z,100158.10
2022-11-25T00:09:09.986Z,100158.19
2022-11-25T00:11:40.639Z,100160.57
2022-11-25T00:14:11.934Z,100167.10
2022-11-25T00:16:43.643Z,100171.18
2022-11-25T00:19:14.529Z,100176.73
2022-11-25T00:21:42.838Z,100178.42
2022-11-25T00:24:14.008Z,100179.61
2022-11-25T00:26:42.263Z,100176.50
2022-11-25T00:29:11.868Z,100176.65
2022-11-25T00:31:41.168Z,100175.08
2022-11-25T00:34:14.188Z,100178.88
2022-11-25T00:36:42.673Z,100181.83
2022-11-25T00:39:13.718Z,100187.69
2022-11-25T00:42:01.107Z,100189.20
2022-11-25T00:44:42.252Z,100189.88
2022-11-25T00:47:16.883Z,100189.65
2022-11-25T00:49:47.435Z,100190.80
2022-11-25T00:52:21.643Z,100191.64
2022-11-25T00:54:50.973Z,100192.29
2022-11-25T00:57:20.906Z,100197.44
2022-11-25T00:59:49.391Z,100202.13
2022-11-25T01:02:19.027Z,100206.42
2022-11-25T01:04:47.375Z,100211.05
2022-11-25T01:07:17.850Z,100210.94
2022-11-25T01:09:46.251Z,100209.77
2022-11-25T01:12:14.458Z,100213.27
2022-11-25T01:14:42.423Z,100212.99
2022-11-25T01:17:10.721Z,100215.67
2022-11-25T01:19:40.588Z,100218.88
2022-11-25T01:22:09.519Z,100221.44
2022-11-25T01:24:37.849Z,100221.24
2022-11-25T01:27:06.108Z,100225.09
2022-11-25T01:29:34.119Z,100230.71
2022-11-25T01:32:02.393Z,100230.83
2022-11-25T01:34:32.871Z,100233.39
2022-11-25T01:37:01.104Z,100233.38
2022-11-25T01:39:32.966Z,100234.55
2022-11-25T01:42:02.146Z,100233.34
2022-11-25T01:44:32.718Z,100233.34
2022-11-25T01:47:07.222Z,100230.27
2022-11-25T01:49:59.631Z,100232.42
2022-11-25T01:52:32.125Z,100235.41
2022-11-25T01:55:03.828Z,100241.81
2022-11-25T01:57:54.564Z,100242.84
2022-11-25T02:00:25.637Z,100239.91
2022-11-25T02:02:55.663Z,100240.55
2022-11-25T02:05:46.729Z,100244.72
2022-11-25T02:08:16.180Z,100245.43
2022-11-25T02:10:44.849Z,100248.91
2022-11-25T02:13:12.975Z,100252.39
2022-11-25T02:15:41.042Z,100255.16
2022-11-25T02:18:09.254Z,100253.73
2022-11-25T02:20:39.288Z,100253.37
2022-11-25T02:23:55.659Z,100256.05
2022-11-25T02:26:24.243Z,100253.33
2022-11-25T02:28:53.121Z,100257.27
2022-11-25T02:31:22.529Z,100258.32
2022-11-25T02:33:50.812Z,100261.11
2022-11-25T02:36:22.894Z,100262.89
2022-11-25T02:38:57.065Z,100264.25
2022-11-25T02:41:31.164Z,100264.07
2022-11-25T02:44:01.654Z,100263.36
2022-11-25T02:46:30.562Z,100264.91
2022-11-25T02:49:15.067Z,100264.23
2022-11-25T02:51:45.395Z,100270.37
2022-11-25T02:54:14.445Z,100272.41
2022-11-25T02:56:43.254Z,100278.22
2022-11-25T02:59:12.185Z,100282.85
2022-11-25T03:01:40.597Z,100282.66
2022-11-25T03:04:10.875Z,100282.83
2022-11-25T03:06:38.958Z,100287.31
2022-11-25T03:09:08.000Z,100292.35
2022-11-25T03:11:58.042Z,100293.54
2022-11-25T03:14:26.155Z,100295.17
2022-11-25T03:16:54.556Z,100294.56
2022-11-25T03:19:22.622Z,100296.56
2022-11-25T03:21:53.073Z,100300.13
2022-11-25T03:24:21.123Z,100303.38
2022-11-25T03:26:49.610Z,100306.49
2022-11-25T03:29:18.245Z,100311.70
2022-11-25T03:31:46.479Z,100315.18
2022-11-25T03:34:15.080Z,100320.06
2022-11-25T03:36:43.422Z,100325.62
2022-11-25T03:39:11.405Z,100330.33
2022-11-25T03:41:39.506Z,100333.91
2022-11-25T03:44:07.679Z,100335.95
2022-11-25T03:46:36.723Z,100334.52
2022-11-25T03:49:06.438Z,100339.18
2022-11-25T03:51:35.395Z,100341.05
2022-11-25T03:54:03.691Z,100341.56
2022-11-25T03:56:36.133Z,100341.90
2022-11-25T03:59:04.517Z,100342.79
2022-11-25T04:01:33.513Z,100343.17
2022-11-25T04:04:01.430Z,100346.76
2022-11-25T04:06:30.132Z,100350.00
2022-11-25T04:08:59.006Z,100354.37
2022-11-25T04:11:47.550Z,100357.52
2022-11-25T04:14:15.487Z,100358.48
2022-11-25T04:16:43.497Z,100365.42
2022-11-25T04:19:11.643Z,100364.64
2022-11-25T04:21:40.091Z,100369.54
2022-11-25T04:24:09.275Z,100374.42
2022-11-25T04:26:37.222Z,100376.86
2022-11-25T04:29:05.708Z,100379.83
2022-11-25T04:31:35.081Z,100383.33
2022-11-25T04:34:03.597Z,100385.08
2022-11-25T04:36:31.982Z,100390.27
2022-11-25T04:39:00.357Z,100392.25
2022-11-25T04:41:28.910Z,100396.14
2022-11-25T04:43:59.772Z,100396.55
2022-11-25T04:46:36.488Z,100395.08
2022-11-25T04:49:05.231Z,100397.48
2022-11-25T04:51:33.646Z,100400.08
2022-11-25T04:54:03.847Z,100398.17
2022-11-25T04:56:32.334Z,100403.55
2022-11-25T04:59:19.290Z,100408.91
2022-11-25T05:01:48.279Z,100409.13
2022-11-25T05:04:28.356Z,100413.83
2022-11-25T05:06:56.708Z,100420.25
2022-11-25T05:09:25.351Z,100423.04
2022-11-25T05:12:03.709Z,100426.33
2022-11-25T05:14:32.261Z,100427.89
2022-11-25T05:17:00.355Z,100430.14
2022-11-25T05:19:28.675Z,100430.82
2022-11-25T05:21:57.382Z,100436.34
2022-11-25T05:24:26.158Z,100438.25
2022-11-25T05:26:55.149Z,100438.83
2022-11-25T05:29:23.494Z,100443.50
2022-11-25T05:31:51.766Z,100450.02
2022-11-25T05:34:20.043Z,100454.77
2022-11-25T05:36:48.972Z,100457.36
2022-11-25T05:39:18.778Z,100462.95
2022-11-25T05:42:07.200Z,100470.61
2022-11-25T05:44:35.623Z,100475.30
2022-11-25T05:47:04.199Z,100482.55
2022-11-25T05:49:33.238Z,100486.58
2022-11-25T05:52:02.197Z,100486.59
2022-11-25T05:54:33.687Z,100482.42
2022-11-25T05:57:02.406Z,100485.36
2022-11-25T05:59:34.320Z,100486.44
2022-11-25T06:02:13.146Z,100486.61
2022-11-25T06:04:41.785Z,100490.37
2022-11-25T06:07:09.961Z,100493.41
2022-11-25T06:09:38.390Z,100495.69
2022-11-25T06:12:07.216Z,100498.19
2022-11-25T06:14:38.685Z,100500.14
2022-11-25T06:17:08.178Z,100505.19
2022-11-25T06:19:43.136Z,100510.05
2022-11-25T06:22:11.650Z,100510.20
2022-11-25T06:24:40.112Z,100510.16
2022-11-25T06:27:08.761Z,100512.91
2022-11-25T06:29:36.976Z,100513.95
2022-11-25T06:32:05.783Z,100523.42
2022-11-25T06:35:06.072Z,100529.61
2022-11-25T06:37:42.247Z,100533.58
2022-11-25T06:40:10.506Z,100530.07
2022-11-25T06:42:39.218Z,100529.89
2022-11-25T06:45:07.712Z,100535.26
2022-11-25T06:47:35.670Z,100535.11
2022-11-25T06:50:04.112Z,100537.34
2022-11-25T06:52:32.152Z,100540.05
2022-11-25T06:55:00.420Z,100539.38
2022-11-25T06:57:28.522Z,100542.84
2022-11-25T06:59:56.455Z,100550.05
2022-11-25T07:02:24.357Z,100553.66
2022-11-25T07:04:52.431Z,100559.65
2022-11-25T07:07:20.823Z,100559.63
2022-11-25T07:09:48.779Z,100566.34
2022-11-25T07:12:16.793Z,100563.21
2022-11-25T07:14:44.834Z,100562.99
2022-11-25T07:17:13.285Z,100567.98
2022-11-25T07:19:41.403Z,100569.11
2022-11-25T07:22:09.639Z,100571.01
2022-11-25T07:24:38.231Z,100573.61
2022-11-25T07:27:06.935Z,100573.28
2022-11-25T07:29:54.552Z,100576.73
2022-11-25T07:32:24.278Z,100577.45
2022-11-25T07:34:52.589Z,100581.63
2022-11-25T07:37:20.734Z,100581.98
2022-11-25T07:39:48.948Z,100583.19
2022-11-25T07:42:17.151Z,100586.44
2022-11-25T07:44:45.035Z,100591.60
2022-11-25T07:47:39.219Z,100598.29
2022-11-25T07:50:08.864Z,100597.19
2022-11-25T07:52:39.156Z,100598.69
2022-11-25T07:55:07.681Z,100600.86
2022-11-25T07:57:35.737Z,100601.16
2022-11-25T08:00:05.093Z,100600.83
2022-11-25T08:02:39.893Z,100604.44
2022-11-25T08:05:08.420Z,100610.98
2022-11-25T08:07:37.005Z,100614.04
2022-11-25T08:10:05.745Z,100620.23
2022-11-25T08:12:35.083Z,100623.67
2022-11-25T08:15:03.241Z,100626.75
2022-11-25T08:17:31.438Z,100627.27
2022-11-25T08:19:59.376Z,100633.98
2022-11-25T08:22:28.612Z,100637.39
2022-11-25T08:24:56.841Z,100638.73
2022-11-25T08:27:24.867Z,100646.27
2022-11-25T08:29:53.172Z,100650.88
2022-11-25T08:32:21.110Z,100653.77
2022-11-25T08:34:49.216Z,100655.59
2022-11-25T08:37:17.223Z,100658.27
2022-11-25T08:39:53.642Z,100660.42
2022-11-25T08:42:22.582Z,100662.20
2022-11-25T08:44:55.701Z,100659.02
2022-11-25T08:47:24.890Z,100662.75
2022-11-25T08:49:54.197Z,100671.51
2022-11-25T08:52:23.155Z,100677.00
2022-11-25T08:54:51.309Z,100680.63
2022-11-25T08:57:19.602Z,100683.69
2022-11-25T08:59:47.563Z,100683.95
2022-11-25T09:02:17.507Z,100682.13
2022-11-25T09:04:45.923Z,100686.09
2022-11-25T09:07:14.013Z,100689.20
2022-11-25T09:09:42.994Z,100692.83
2022-11-25T09:12:11.068Z,100696.67
2022-11-25T09:14:40.593Z,100693.65
2022-11-25T09:17:12.570Z,100692.28
2022-11-25T09:19:40.810Z,100690.27
2022-11-25T09:22:08.915Z,100693.77
2022-11-25T09:24:37.204Z,100695.50
2022-11-25T09:27:05.671Z,100695.49
2022-11-25T09:29:34.099Z,100698.08
2022-11-25T09:32:02.496Z,100699.80
2022-11-25T09:34:30.722Z,100699.09
2022-11-25T09:36:58.678Z,100700.41
2022-11-25T09:39:29.790Z,100697.82
2022-11-25T09:42:42.935Z,100699.02
2022-11-25T09:46:02.209Z,100696.60
2022-11-25T09:48:56.769Z,100698.66
2022-11-25T09:51:35.885Z,100699.19
2022-11-25T09:54:10.255Z,100699.33
2022-11-25T09:56:45.145Z,100702.27
2022-11-25T09:59:19.197Z,100705.34
2022-11-25T10:01:57.806Z,100704.75
2022-11-25T10:04:32.351Z,100700.73
2022-11-25T10:07:04.153Z,100701.20
2022-11-25T10:09:36.154Z,100704.27
2022-11-25T10:12:25.626Z,100702.70
2022-11-25T10:14:59.995Z,100703.90
2022-11-25T10:17:36.767Z,100705.77
2022-11-25T10:20:21.682Z,100705.74
2022-11-25T10:23:01.289Z,100707.23
2022-11-25T10:25:42.767Z,100714.28
2022-11-25T10:28:33.219Z,100715.81
2022-11-25T10:31:11.150Z,100714.19
2022-11-25T10:33:44.741Z,100713.95
2022-11-25T10:36:15.934Z,100712.89
2022-11-25T10:38:52.958Z,100711.77
2022-11-25T10:41:26.272Z,100717.27
2022-11-25T10:43:54.522Z,100721.17
2022-11-25T10:47:11.671Z,100719.09
2022-11-25T10:49:38.318Z,100721.15
2022-11-25T10:52:21.905Z,100722.34
2022-11-25T10:54:58.535Z,100724.79
2022-11-25T10:57:29.247Z,100723.61
2022-11-25T10:59:59.929Z,100722.92
2022-11-25T11:02:29.476Z,100724.30
2022-11-25T11:05:10.355Z,100727.17
2022-11-25T11:07:44.836Z,100728.46
2022-11-25T11:10:21.816Z,100725.04
2022-11-25T11:12:56.810Z,100726.77
2022-11-25T11:15:31.635Z,100726.09
2022-11-25T11:18:21.086Z,100722.64
2022-11-25T11:20:51.889Z,100725.02
2022-11-25T11:23:20.423Z,100728.72
2022-11-25T11:25:56.512Z,100730.91
2022-11-25T11:28:29.630Z,100730.15
2022-11-25T11:31:02.268Z,100730.98
2022-11-25T11:33:36.403Z,100734.28
2022-11-25T11:36:23.002Z,100735.48
2022-11-25T11:39:01.583Z,100737.50
2022-11-25T11:41:48.651Z,100734.37
2022-11-25T11:44:37.718Z,100732.14
2022-11-25T11:47:24.627Z,100725.30
2022-11-25T11:49:52.846Z,100720.56
2022-11-25T11:52:53.026Z,100727.14
2022-11-25T11:55:45.808Z,100727.02
2022-11-25T11:58:25.614Z,100728.44
2022-11-25T12:01:07.063Z,100722.95
2022-11-25T12:03:44.331Z,100728.52
2022-11-25T12:06:15.004Z,100728.72
2022-11-25T12:08:59.579Z,100731.52
2022-11-25T12:11:35.425Z,100728.14
2022-11-25T12:14:31.389Z,100725.09
2022-11-25T12:17:03.006Z,100726.38
2022-11-25T12:19:41.820Z,100728.31
2022-11-25T12:22:34.272Z,100729.54
2022-11-25T12:25:14.229Z,100729.19
2022-11-25T12:27:53.388Z,100724.54
2022-11-25T12:30:23.580Z,100730.91
2022-11-25T12:33:11.189Z,100734.79
2022-11-25T12:36:06.126Z,100732.93
2022-11-25T12:38:43.246Z,100732.31
2022-11-25T12:41:39.936Z,100730.67
2022-11-25T12:44:29.730Z,100733.02
2022-11-25T12:46:58.336Z,100734.08
2022-11-25T12:49:30.789Z,100732.00
2022-11-25T12:52:20.070Z,100733.55
2022-11-25T12:55:23.425Z,100730.16
2022-11-25T12:58:08.261Z,100727.08
2022-11-25T13:01:02.107Z,100726.02
2022-11-25T13:03:51.687Z,100721.36
2022-11-25T13:06:38.965Z,100719.59
2022-11-25T13:09:32.045Z,100719.10
2022-11-25T13:12:17.170Z,100718.19
2022-11-25T13:15:13.901Z,100719.11
2022-11-25T13:17:45.612Z,100719.99
2022-11-25T13:20:29.805Z,100720.17
2022-11-25T13:23:10.815Z,100719.61
2022-11-25T13:25:42.219Z,100715.80
2022-11-25T13:28:28.725Z,100719.42
2022-11-25T13:31:18.087Z,100721.67
2022-11-25T13:33:46.125Z,100725.98
2022-11-25T13:36:23.424Z,100728.45
2022-11-25T13:38:51.366Z,100732.31
2022-11-25T13:41:45.478Z,100733.92
2022-11-25T13:44:28.643Z,100736.77
2022-11-25T13:46:58.693Z,100739.60
2022-11-25T13:49:41.904Z,100740.16
2022-11-25T13:52:12.887Z,100739.90
2022-11-25T13:54:48.052Z,100745.00
2022-11-25T13:57:25.220Z,100745.91
2022-11-25T13:59:57.178Z,100745.60
2022-11-25T14:02:30.930Z,100748.55
2022-11-25T14:05:11.596Z,100749.77
2022-11-25T14:08:07.975Z,100752.25
2022-11-25T14:10:45.902Z,100755.06
2022-11-25T14:13:17.166Z,100758.57
2022-11-25T14:16:17.943Z,100760.00
2022-11-25T14:22:31.538Z,100758.89
2022-11-25T14:25:23.073Z,100757.73
2022-11-25T14:28:03.899Z,100755.97
2022-11-25T14:30:33.201Z,100757.89
2022-11-25T14:33:10.129Z,100757.80
2022-11-25T14:35:47.849Z,100756.55
2022-11-25T14:38:22.565Z,100757.34
2022-11-25T14:41:01.802Z,100755.20
2022-11-25T14:43:34.995Z,100757.19
2022-11-25T14:46:21.497Z,100761.20
2022-11-25T14:48:59.796Z,100762.32
2022-11-25T14:51:35.334Z,100758.27
2022-11-25T14:54:07.205Z,100758.85
2022-11-25T14:56:37.312Z,100759.88
2022-11-25T14:59:09.905Z,100760.37
2022-11-25T15:01:39.732Z,100766.47
2022-11-25T15:04:17.481Z,100771.38
2022-11-25T15:06:54.361Z,100770.77
2022-11-25T15:09:26.228Z,100774.59
2022-11-25T15:11:58.978Z,100774.90
2022-11-25T15:14:50.910Z,100771.70
2022-11-25T15:17:28.941Z,100771.24
2022-11-25T15:20:00.245Z,100767.33
2022-11-25T15:22:29.375Z,100771.21
2022-11-25T15:25:14.503Z,100772.33
2022-11-25T15:27:49.798Z,100775.91
2022-11-25T15:30:29.538Z,100777.73
2022-11-25T15:32:58.188Z,100779.86
2022-11-25T15:35:27.566Z,100781.45
2022-11-25T15:37:55.853Z,100785.48
2022-11-25T15:40:36.682Z,100789.36
2022-11-25T15:43:08.148Z,100795.13
2022-11-25T15:45:45.963Z,100798.79
2022-11-25T15:48:25.923Z,100797.98
2022-11-25T15:51:06.857Z,100793.70
2022-11-25T15:53:38.023Z,100794.44
2022-11-25T15:56:07.665Z,100797.57
2022-11-25T15:58:35.743Z,100795.88
2022-11-25T16:01:18.243Z,100799.89
2022-11-25T16:03:48.054Z,100802.02
2022-11-25T16:06:27.915Z,100807.09
2022-11-25T16:09:02.137Z,100811.14
2022-11-25T16:11:44.250Z,100813.97
2022-11-25T16:14:28.880Z,100814.88
2022-11-25T16:17:06.219Z,100820.06
2022-11-25T16:19:41.048Z,100822.28
2022-11-25T16:22:15.264Z,100826.22
2022-11-25T16:24:50.763Z,100822.23
2022-11-25T16:27:28.440Z,100823.97
2022-11-25T16:30:08.490Z,100821.86
2022-11-25T16:32:36.571Z,100827.95
2022-11-25T16:35:15.462Z,100831.77
2022-11-25T16:37:48.458Z,100837.38
2022-11-25T16:40:18.895Z,100839.52
2022-11-25T16:42:49.849Z,100840.66
2022-11-25T16:45:21.435Z,100844.33
2022-11-25T16:47:59.753Z,100842.81
2022-11-25T16:50:44.048Z,100844.77
2022-11-25T16:53:14.841Z,100847.41
2022-11-25T16:55:45.666Z,100845.26
2022-11-25T16:58:20.288Z,100843.94
2022-11-25T17:00:52.683Z,100841.56
2022-11-25T17:03:22.473Z,100845.23
2022-11-25T17:05:50.836Z,100846.48
2022-11-25T17:08:19.486Z,100847.71
2022-11-25T17:10:48.334Z,100849.29
2022-11-25T17:13:26.025Z,100848.27
2022-11-25T17:15:54.289Z,100850.16
2022-11-25T17:18:22.820Z,100851.55
2022-11-25T17:20:50.997Z,100852.75
2022-11-25T17:23:19.242Z,100856.73
2022-11-25T17:25:49.133Z,100855.52
2022-11-25T17:28:20.535Z,100853.13
2022-11-25T17:30:49.267Z,100853.84
2022-11-25T17:33:20.227Z,100859.55
2022-11-25T17:35:48.195Z,100861.29
2022-11-25T17:38:21.288Z,100861.14
2022-11-25T17:40:50.639Z,100862.52
2022-11-25T17:43:21.218Z,100863.38
2022-11-25T17:45:49.852Z,100861.81
2022-11-25T17:48:18.738Z,100859.93
2022-11-25T17:50:47.344Z,100858.20
2022-11-25T17:53:15.550Z,100853.73
2022-11-25T17:55:43.725Z,100853.38
2022-11-25T17:58:14.691Z,100852.53
2022-11-25T18:00:43.871Z,100852.36
2022-11-25T18:03:16.643Z,100857.02
2022-11-25T18:05:46.298Z,100857.70
2022-11-25T18:08:14.974Z,100862.55
2022-11-25T18:10:45.799Z,100867.71
2022-11-25T18:13:15.932Z,100871.85
2022-11-25T18:15:44.107Z,100870.30
2022-11-25T18:18:24.544Z,100873.58
2022-11-25T18:20:53.642Z,100876.85
2022-11-25T18:23:22.171Z,100875.47
2022-11-25T18:25:51.118Z,100874.27
2022-11-25T18:28:22.144Z,100878.06
2022-11-25T18:30:50.759Z,100881.16
2022-11-25T18:33:19.558Z,100885.83
2022-11-25T18:35:48.334Z,100884.28
2022-11-25T18:38:16.519Z,100884.63
2022-11-25T18:40:50.233Z,100888.59
2022-11-25T18:43:25.183Z,100890.99
2022-11-25T18:45:54.307Z,100895.65
2022-11-25T18:48:25.279Z,100901.85
2022-11-25T18:50:56.232Z,100903.05
2022-11-25T18:53:24.478Z,100903.05
2022-11-25T18:55:53.091Z,100903.73
2022-11-25T18:58:27.340Z,100904.95
2022-11-25T19:01:03.198Z,100909.26
2022-11-25T19:03:31.375Z,100910.46
2022-11-25T19:06:01.123Z,100913.91
2022-11-25T19:08:30.189Z,100915.28
2022-11-25T19:10:58.217Z,100916.15
2022-11-25T19:13:30.741Z,100916.67
2022-11-25T19:16:13.926Z,100918.73
2022-11-25T19:18:44.908Z,100917.52
2022-11-25T19:21:18.432Z,100918.21
2022-11-25T19:23:47.020Z,100920.98
2022-11-25T19:26:26.944Z,100922.52
2022-11-25T19:29:01.598Z,100925.80
2022-11-25T19:31:33.354Z,100930.11
2022-11-25T19:34:01.650Z,100933.91
2022-11-25T19:36:31.212Z,100935.12
2022-11-25T19:38:59.654Z,100937.87
2022-11-25T19:41:27.851Z,100940.63
2022-11-25T19:43:55.836Z,100937.70
2022-11-25T19:46:46.177Z,100938.39
2022-11-25T19:49:20.034Z,100941.84
2022-11-25T19:51:49.043Z,100944.26
2022-11-25T19:54:19.542Z,100946.66
2022-11-25T19:56:47.533Z,100953.72
2022-11-25T19:59:15.675Z,100958.55
2022-11-25T20:01:45.510Z,100960.78
2022-11-25T20:04:20.638Z,100962.33
2022-11-25T20:06:49.361Z,100963.54
2022-11-25T20:09:17.316Z,100967.16
2022-11-25T20:11:45.273Z,100970.77
2022-11-25T20:14:13.227Z,100971.64
2022-11-25T20:16:41.886Z,100977.48
2022-11-25T20:19:18.330Z,100980.39
2022-11-25T20:21:46.882Z,100984.36
2022-11-25T20:24:19.373Z,100986.77
2022-11-25T20:26:48.956Z,100986.59
2022-11-25T20:29:27.389Z,100987.30
2022-11-25T20:31:58.438Z,100990.23
2022-11-25T20:34:28.499Z,100993.50
2022-11-25T20:36:56.701Z,100999.67
2022-11-25T20:39:24.812Z,101001.91
2022-11-25T20:41:53.126Z,101004.98
2022-11-25T20:44:21.468Z,101007.92
2022-11-25T20:46:49.671Z,101004.81
2022-11-25T20:49:25.742Z,101007.58
2022-11-25T20:51:54.000Z,101011.21
2022-11-25T20:54:24.608Z,101012.60
2022-11-25T20:56:52.535Z,101016.91
2022-11-25T20:59:23.165Z,101014.84
2022-11-25T21:01:52.773Z,101015.34
2022-11-25T21:04:21.056Z,101017.25
2022-11-25T21:06:49.038Z,101017.60
2022-11-25T21:09:20.547Z,101017.42
2022-11-25T21:11:49.231Z,101016.05
2022-11-25T21:14:19.295Z,101016.58
2022-11-25T21:16:47.757Z,101014.86
2022-11-25T21:19:16.091Z,101017.45
2022-11-25T21:21:46.345Z,101017.80
2022-11-25T21:24:29.825Z,101014.70
2022-11-25T21:27:00.647Z,101018.31
2022-11-25T21:29:29.917Z,101020.38
2022-11-25T21:31:57.910Z,101020.53
2022-11-25T21:34:26.165Z,101018.44
2022-11-25T21:36:54.877Z,101022.59
2022-11-25T21:39:32.562Z,101022.25
2022-11-25T21:42:04.989Z,101027.25
2022-11-25T21:44:41.405Z,101033.45
2022-11-25T21:47:22.250Z,101031.23
2022-11-25T21:49:51.249Z,101030.73
2022-11-25T21:52:19.409Z,101032.98
2022-11-25T21:54:47.461Z,101034.85
2022-11-25T21:57:22.819Z,101031.74
2022-11-25T21:59:50.956Z,101035.00
2022-11-25T22:02:22.107Z,101035.52
2022-11-25T22:04:50.797Z,101034.30
2022-11-25T22:07:19.062Z,101033.29
2022-11-25T22:09:47.065Z,101035.70
2022-11-25T22:12:29.585Z,101037.23
2022-11-25T22:14:59.717Z,101038.63
2022-11-25T22:17:29.306Z,101039.66
2022-11-25T22:19:57.428Z,101042.25
2022-11-25T22:22:25.684Z,101040.19
2022-11-25T22:24:53.609Z,101041.20
2022-11-25T22:27:24.953Z,101043.77
2022-11-25T22:29:54.567Z,101043.62
2022-11-25T22:32:22.929Z,101047.60
2022-11-25T22:34:50.909Z,101049.85
2022-11-25T22:37:24.687Z,101051.91
2022-11-25T22:39:52.887Z,101054.84
2022-11-25T22:42:31.284Z,101057.61
2022-11-25T22:45:02.564Z,101058.82
2022-11-25T22:47:44.147Z,101059.87
2022-11-25T22:50:33.740Z,101059.68
2022-11-25T22:53:02.391Z,101054.85
2022-11-25T22:55:33.050Z,101056.39
2022-11-25T22:58:04.080Z,101065.02
2022-11-25T23:00:36.217Z,101063.30
2022-11-25T23:03:33.964Z,101063.48
2022-11-25T23:06:03.281Z,101060.56
2022-11-25T23:08:31.807Z,101056.25
2022-11-25T23:11:00.091Z,101055.39
2022-11-25T23:13:27.994Z,101052.99
2022-11-25T23:15:58.348Z,101055.41
2022-11-25T23:18:38.743Z,101051.45
2022-11-25T23:21:14.503Z,101052.84
2022-11-25T23:23:42.343Z,101047.86
2022-11-25T23:26:11.742Z,101049.26
2022-11-25T23:28:40.320Z,101053.20
2022-11-25T23:31:12.783Z,101058.89
2022-11-25T23:33:44.713Z,101065.43
2022-11-25T23:36:42.233Z,101065.62
2022-11-25T23:39:19.415Z,101064.59
2022-11-25T23:41:48.810Z,101064.77
2022-11-25T23:44:29.180Z,101064.94
2022-11-25T23:47:01.243Z,101067.54
2022-11-25T23:49:44.363Z,101065.66
2022-11-25T23:52:18.266Z,101066.00
2022-11-25T23:54:48.690Z,101068.92
2022-11-25T23:57:22.992Z,101065.66
2022-11-25T23:59:51.865Z,101064.80
